sensor_id;sensor_type;location;lat;lon;timestamp;P1;durP1;ratioP1;P2;durP2;ratioP2
1276;SDS011;631;51.024;13.826;2022-07-24T00:01:01;24.03;;;21.67;;
1276;SDS011;631;51.024;13.826;2022-07-24T00:03:26;24.30;;;22.07;;
1276;SDS011;631;51.024;13.826;2022-07-24T00:05:52;24.93;;;21.47;;
1276;SDS011;631;51.024;13.826;2022-07-24T00:08:18;23.20;;;21.10;;
1276;SDS011;631;51.024;13.826;2022-07-24T00:10:44;25.00;;;22.47;;
1276;SDS011;631;51.024;13.826;2022-07-24T00:13:09;23.63;;;21.37;;
1276;SDS011;631;51.024;13.826;2022-07-24T00:15:35;23.10;;;20.93;;
1276;SDS011;631;51.024;13.826;2022-07-24T00:18:00;27.60;;;23.53;;
1276;SDS011;631;51.024;13.826;2022-07-24T00:20:26;23.70;;;21.47;;
1276;SDS011;631;51.024;13.826;2022-07-24T00:22:51;24.40;;;21.90;;
1276;SDS011;631;51.024;13.826;2022-07-24T00:25:17;23.30;;;20.93;;
1276;SDS011;631;51.024;13.826;2022-07-24T00:27:43;23.50;;;21.37;;
1276;SDS011;631;51.024;13.826;2022-07-24T00:30:08;24.33;;;22.00;;
1276;SDS011;631;51.024;13.826;2022-07-24T00:32:34;23.60;;;21.20;;
1276;SDS011;631;51.024;13.826;2022-07-24T00:35:00;23.60;;;21.50;;
1276;SDS011;631;51.024;13.826;2022-07-24T00:37:25;23.00;;;20.80;;
1276;SDS011;631;51.024;13.826;2022-07-24T00:39:52;24.60;;;22.20;;
1276;SDS011;631;51.024;13.826;2022-07-24T00:42:17;24.63;;;22.33;;
1276;SDS011;631;51.024;13.826;2022-07-24T00:44:43;23.30;;;21.10;;
1276;SDS011;631;51.024;13.826;2022-07-24T00:47:09;24.67;;;22.37;;
1276;SDS011;631;51.024;13.826;2022-07-24T00:49:34;22.73;;;20.53;;
1276;SDS011;631;51.024;13.826;2022-07-24T00:52:00;22.17;;;20.00;;
1276;SDS011;631;51.024;13.826;2022-07-24T00:54:25;22.27;;;20.10;;
1276;SDS011;631;51.024;13.826;2022-07-24T00:56:52;21.17;;;19.27;;
1276;SDS011;631;51.024;13.826;2022-07-24T00:59:18;21.20;;;19.30;;
1276;SDS011;631;51.024;13.826;2022-07-24T01:01:45;20.57;;;18.57;;
1276;SDS011;631;51.024;13.826;2022-07-24T01:04:11;20.20;;;18.30;;
1276;SDS011;631;51.024;13.826;2022-07-24T01:06:39;18.50;;;16.90;;
1276;SDS011;631;51.024;13.826;2022-07-24T01:09:08;20.47;;;18.57;;
1276;SDS011;631;51.024;13.826;2022-07-24T01:11:35;18.30;;;16.67;;
1276;SDS011;631;51.024;13.826;2022-07-24T01:14:02;17.97;;;16.37;;
1276;SDS011;631;51.024;13.826;2022-07-24T01:16:29;18.27;;;16.60;;
1276;SDS011;631;51.024;13.826;2022-07-24T01:18:55;18.97;;;16.97;;
1276;SDS011;631;51.024;13.826;2022-07-24T01:21:20;17.57;;;16.00;;
1276;SDS011;631;51.024;13.826;2022-07-24T01:23:46;18.50;;;16.80;;
1276;SDS011;631;51.024;13.826;2022-07-24T01:26:12;20.33;;;18.47;;
1276;SDS011;631;51.024;13.826;2022-07-24T01:28:37;19.47;;;17.67;;
1276;SDS011;631;51.024;13.826;2022-07-24T01:31:03;21.53;;;19.43;;
1276;SDS011;631;51.024;13.826;2022-07-24T01:33:29;20.47;;;18.53;;
1276;SDS011;631;51.024;13.826;2022-07-24T01:35:55;22.37;;;20.07;;
1276;SDS011;631;51.024;13.826;2022-07-24T01:38:20;20.63;;;18.70;;
1276;SDS011;631;51.024;13.826;2022-07-24T01:40:46;22.60;;;20.50;;
1276;SDS011;631;51.024;13.826;2022-07-24T01:43:11;23.27;;;21.10;;
1276;SDS011;631;51.024;13.826;2022-07-24T01:45:37;22.73;;;20.43;;
1276;SDS011;631;51.024;13.826;2022-07-24T01:48:03;21.83;;;19.83;;
1276;SDS011;631;51.024;13.826;2022-07-24T01:50:29;25.63;;;23.13;;
1276;SDS011;631;51.024;13.826;2022-07-24T01:52:55;23.60;;;21.40;;
1276;SDS011;631;51.024;13.826;2022-07-24T01:55:21;24.73;;;22.40;;
1276;SDS011;631;51.024;13.826;2022-07-24T01:57:47;25.70;;;23.30;;
1276;SDS011;631;51.024;13.826;2022-07-24T02:00:14;25.67;;;23.07;;
1276;SDS011;631;51.024;13.826;2022-07-24T02:02:40;26.27;;;23.70;;
1276;SDS011;631;51.024;13.826;2022-07-24T02:05:08;26.67;;;24.07;;
1276;SDS011;631;51.024;13.826;2022-07-24T02:11:02;25.77;;;23.30;;
1276;SDS011;631;51.024;13.826;2022-07-24T02:13:27;25.03;;;22.57;;
1276;SDS011;631;51.024;13.826;2022-07-24T02:15:53;25.20;;;22.97;;
1276;SDS011;631;51.024;13.826;2022-07-24T02:18:19;26.77;;;23.97;;
1276;SDS011;631;51.024;13.826;2022-07-24T02:20:45;24.10;;;21.73;;
1276;SDS011;631;51.024;13.826;2022-07-24T02:23:10;25.80;;;23.27;;
1276;SDS011;631;51.024;13.826;2022-07-24T02:25:36;24.90;;;22.07;;
1276;SDS011;631;51.024;13.826;2022-07-24T02:28:01;24.07;;;21.57;;
1276;SDS011;631;51.024;13.826;2022-07-24T02:30:27;24.20;;;19.93;;
1276;SDS011;631;51.024;13.826;2022-07-24T02:32:53;22.67;;;20.50;;
1276;SDS011;631;51.024;13.826;2022-07-24T02:35:18;22.70;;;20.60;;
1276;SDS011;631;51.024;13.826;2022-07-24T02:37:45;24.77;;;22.30;;
1276;SDS011;631;51.024;13.826;2022-07-24T02:40:11;23.50;;;21.40;;
1276;SDS011;631;51.024;13.826;2022-07-24T02:42:38;24.50;;;22.00;;
1276;SDS011;631;51.024;13.826;2022-07-24T02:45:04;24.70;;;22.33;;
1276;SDS011;631;51.024;13.826;2022-07-24T02:47:31;25.40;;;22.90;;
1276;SDS011;631;51.024;13.826;2022-07-24T02:49:57;25.20;;;22.77;;
1276;SDS011;631;51.024;13.826;2022-07-24T02:52:23;24.10;;;21.80;;
1276;SDS011;631;51.024;13.826;2022-07-24T02:54:48;24.83;;;22.37;;
1276;SDS011;631;51.024;13.826;2022-07-24T02:57:14;22.87;;;20.70;;
1276;SDS011;631;51.024;13.826;2022-07-24T02:59:39;22.57;;;20.43;;
1276;SDS011;631;51.024;13.826;2022-07-24T03:02:05;23.23;;;20.90;;
1276;SDS011;631;51.024;13.826;2022-07-24T03:04:31;23.10;;;21.00;;
1276;SDS011;631;51.024;13.826;2022-07-24T03:06:56;23.60;;;21.20;;
1276;SDS011;631;51.024;13.826;2022-07-24T03:09:22;23.37;;;21.07;;
1276;SDS011;631;51.024;13.826;2022-07-24T03:11:48;23.73;;;21.43;;
1276;SDS011;631;51.024;13.826;2022-07-24T03:14:14;24.33;;;21.93;;
1276;SDS011;631;51.024;13.826;2022-07-24T03:16:39;25.33;;;22.73;;
1276;SDS011;631;51.024;13.826;2022-07-24T03:19:05;24.10;;;21.73;;
1276;SDS011;631;51.024;13.826;2022-07-24T03:21:30;23.90;;;21.60;;
1276;SDS011;631;51.024;13.826;2022-07-24T03:23:56;23.27;;;21.10;;
1276;SDS011;631;51.024;13.826;2022-07-24T03:26:21;24.07;;;21.70;;
1276;SDS011;631;51.024;13.826;2022-07-24T03:28:47;22.50;;;20.40;;
1276;SDS011;631;51.024;13.826;2022-07-24T03:31:13;23.37;;;20.90;;
1276;SDS011;631;51.024;13.826;2022-07-24T03:33:38;22.80;;;20.60;;
1276;SDS011;631;51.024;13.826;2022-07-24T03:36:04;23.47;;;21.37;;
1276;SDS011;631;51.024;13.826;2022-07-24T03:38:30;24.20;;;21.90;;
1276;SDS011;631;51.024;13.826;2022-07-24T03:40:55;22.63;;;20.53;;
1276;SDS011;631;51.024;13.826;2022-07-24T03:43:21;21.90;;;19.80;;
1276;SDS011;631;51.024;13.826;2022-07-24T03:45:47;21.30;;;19.47;;
1276;SDS011;631;51.024;13.826;2022-07-24T03:48:12;21.50;;;19.60;;
1276;SDS011;631;51.024;13.826;2022-07-24T03:50:38;19.90;;;17.87;;
1276;SDS011;631;51.024;13.826;2022-07-24T03:53:03;20.57;;;18.57;;
1276;SDS011;631;51.024;13.826;2022-07-24T03:55:29;21.00;;;18.93;;
1276;SDS011;631;51.024;13.826;2022-07-24T03:57:55;20.67;;;18.77;;
1276;SDS011;631;51.024;13.826;2022-07-24T04:00:20;21.53;;;19.40;;
1276;SDS011;631;51.024;13.826;2022-07-24T04:02:46;21.30;;;19.17;;
1276;SDS011;631;51.024;13.826;2022-07-24T04:05:11;20.63;;;18.63;;
1276;SDS011;631;51.024;13.826;2022-07-24T04:07:38;19.83;;;18.03;;
1276;SDS011;631;51.024;13.826;2022-07-24T04:10:04;22.60;;;20.20;;
1276;SDS011;631;51.024;13.826;2022-07-24T04:12:31;19.90;;;18.03;;
1276;SDS011;631;51.024;13.826;2022-07-24T04:14:57;19.53;;;17.67;;
1276;SDS011;631;51.024;13.826;2022-07-24T04:17:23;19.40;;;17.57;;
1276;SDS011;631;51.024;13.826;2022-07-24T04:19:48;19.87;;;17.83;;
1276;SDS011;631;51.024;13.826;2022-07-24T04:22:14;19.47;;;17.57;;
1276;SDS011;631;51.024;13.826;2022-07-24T04:24:39;19.33;;;17.63;;
1276;SDS011;631;51.024;13.826;2022-07-24T04:27:05;19.30;;;17.57;;
1276;SDS011;631;51.024;13.826;2022-07-24T04:29:30;21.13;;;19.17;;
1276;SDS011;631;51.024;13.826;2022-07-24T04:31:56;19.07;;;17.37;;
1276;SDS011;631;51.024;13.826;2022-07-24T04:34:22;18.90;;;17.00;;
1276;SDS011;631;51.024;13.826;2022-07-24T04:36:47;19.53;;;17.57;;
1276;SDS011;631;51.024;13.826;2022-07-24T04:39:13;18.40;;;16.60;;
1276;SDS011;631;51.024;13.826;2022-07-24T04:41:39;19.77;;;17.77;;
1276;SDS011;631;51.024;13.826;2022-07-24T04:44:05;18.53;;;16.80;;
1276;SDS011;631;51.024;13.826;2022-07-24T04:46:30;19.47;;;17.67;;
1276;SDS011;631;51.024;13.826;2022-07-24T04:48:56;18.90;;;17.20;;
1276;SDS011;631;51.024;13.826;2022-07-24T04:51:21;20.17;;;18.37;;
1276;SDS011;631;51.024;13.826;2022-07-24T04:53:47;19.10;;;17.23;;
1276;SDS011;631;51.024;13.826;2022-07-24T04:56:13;19.80;;;17.90;;
1276;SDS011;631;51.024;13.826;2022-07-24T04:58:39;18.90;;;17.00;;
1276;SDS011;631;51.024;13.826;2022-07-24T05:01:04;19.03;;;17.23;;
1276;SDS011;631;51.024;13.826;2022-07-24T05:03:30;19.17;;;17.27;;
1276;SDS011;631;51.024;13.826;2022-07-24T05:05:56;18.87;;;17.07;;
1276;SDS011;631;51.024;13.826;2022-07-24T05:08:21;18.17;;;16.27;;
1276;SDS011;631;51.024;13.826;2022-07-24T05:10:47;18.63;;;16.73;;
1276;SDS011;631;51.024;13.826;2022-07-24T05:13:13;18.00;;;16.40;;
1276;SDS011;631;51.024;13.826;2022-07-24T05:15:38;18.73;;;17.03;;
1276;SDS011;631;51.024;13.826;2022-07-24T05:18:04;17.37;;;15.87;;
1276;SDS011;631;51.024;13.826;2022-07-24T05:20:29;17.70;;;16.00;;
1276;SDS011;631;51.024;13.826;2022-07-24T05:22:55;17.70;;;16.10;;
1276;SDS011;631;51.024;13.826;2022-07-24T05:25:21;17.80;;;16.10;;
1276;SDS011;631;51.024;13.826;2022-07-24T05:27:46;17.13;;;15.63;;
1276;SDS011;631;51.024;13.826;2022-07-24T05:30:12;16.50;;;15.03;;
1276;SDS011;631;51.024;13.826;2022-07-24T05:32:38;16.90;;;15.40;;
1276;SDS011;631;51.024;13.826;2022-07-24T05:35:04;16.93;;;15.33;;
1276;SDS011;631;51.024;13.826;2022-07-24T05:37:30;16.93;;;15.33;;
1276;SDS011;631;51.024;13.826;2022-07-24T05:39:55;16.87;;;15.23;;
1276;SDS011;631;51.024;13.826;2022-07-24T05:42:21;16.30;;;14.70;;
1276;SDS011;631;51.024;13.826;2022-07-24T05:44:46;15.63;;;14.23;;
1276;SDS011;631;51.024;13.826;2022-07-24T05:47:12;16.43;;;14.93;;
1276;SDS011;631;51.024;13.826;2022-07-24T05:49:38;15.30;;;13.90;;
1276;SDS011;631;51.024;13.826;2022-07-24T05:52:03;15.23;;;13.70;;
1276;SDS011;631;51.024;13.826;2022-07-24T05:54:29;15.10;;;13.60;;
1276;SDS011;631;51.024;13.826;2022-07-24T05:56:55;14.83;;;13.53;;
1276;SDS011;631;51.024;13.826;2022-07-24T05:59:20;14.13;;;12.93;;
1276;SDS011;631;51.024;13.826;2022-07-24T06:01:46;16.63;;;14.27;;
1276;SDS011;631;51.024;13.826;2022-07-24T06:04:11;15.23;;;13.73;;
1276;SDS011;631;51.024;13.826;2022-07-24T06:06:37;14.90;;;13.60;;
1276;SDS011;631;51.024;13.826;2022-07-24T06:09:03;15.00;;;13.70;;
1276;SDS011;631;51.024;13.826;2022-07-24T06:11:29;14.90;;;13.50;;
1276;SDS011;631;51.024;13.826;2022-07-24T06:13:54;14.70;;;13.40;;
1276;SDS011;631;51.024;13.826;2022-07-24T06:16:20;13.60;;;12.40;;
1276;SDS011;631;51.024;13.826;2022-07-24T06:18:46;13.00;;;11.80;;
1276;SDS011;631;51.024;13.826;2022-07-24T06:21:12;13.53;;;12.23;;
1276;SDS011;631;51.024;13.826;2022-07-24T06:23:37;13.87;;;12.67;;
1276;SDS011;631;51.024;13.826;2022-07-24T06:26:03;14.47;;;13.17;;
1276;SDS011;631;51.024;13.826;2022-07-24T06:28:29;14.00;;;12.80;;
1276;SDS011;631;51.024;13.826;2022-07-24T06:30:55;14.80;;;13.40;;
1276;SDS011;631;51.024;13.826;2022-07-24T06:33:20;13.80;;;12.60;;
1276;SDS011;631;51.024;13.826;2022-07-24T06:35:46;13.77;;;12.67;;
1276;SDS011;631;51.024;13.826;2022-07-24T06:38:12;13.83;;;12.73;;
1276;SDS011;631;51.024;13.826;2022-07-24T06:40:37;13.50;;;12.40;;
1276;SDS011;631;51.024;13.826;2022-07-24T06:43:04;13.10;;;12.00;;
1276;SDS011;631;51.024;13.826;2022-07-24T06:45:30;12.87;;;11.70;;
1276;SDS011;631;51.024;13.826;2022-07-24T06:48:01;14.20;;;12.90;;
1276;SDS011;631;51.024;13.826;2022-07-24T06:50:28;13.50;;;12.30;;
1276;SDS011;631;51.024;13.826;2022-07-24T06:52:54;13.07;;;11.97;;
1276;SDS011;631;51.024;13.826;2022-07-24T06:55:20;12.87;;;11.77;;
1276;SDS011;631;51.024;13.826;2022-07-24T06:57:46;12.43;;;11.53;;
1276;SDS011;631;51.024;13.826;2022-07-24T07:00:12;12.50;;;11.40;;
1276;SDS011;631;51.024;13.826;2022-07-24T07:02:38;12.23;;;11.33;;
1276;SDS011;631;51.024;13.826;2022-07-24T07:05:04;12.13;;;11.13;;
1276;SDS011;631;51.024;13.826;2022-07-24T07:07:31;11.60;;;10.70;;
1276;SDS011;631;51.024;13.826;2022-07-24T07:09:57;11.13;;;9.90;;
1276;SDS011;631;51.024;13.826;2022-07-24T07:12:22;11.20;;;10.30;;
1276;SDS011;631;51.024;13.826;2022-07-24T07:14:48;10.50;;;9.80;;
1276;SDS011;631;51.024;13.826;2022-07-24T07:17:14;13.33;;;12.27;;
1276;SDS011;631;51.024;13.826;2022-07-24T07:19:41;11.43;;;10.33;;
1276;SDS011;631;51.024;13.826;2022-07-24T07:22:07;9.53;;;8.70;;
1276;SDS011;631;51.024;13.826;2022-07-24T07:24:33;8.10;;;7.50;;
1276;SDS011;631;51.024;13.826;2022-07-24T07:26:59;7.53;;;6.87;;
1276;SDS011;631;51.024;13.826;2022-07-24T07:29:24;7.73;;;7.23;;
1276;SDS011;631;51.024;13.826;2022-07-24T07:31:50;8.10;;;7.50;;
1276;SDS011;631;51.024;13.826;2022-07-24T07:34:15;8.27;;;7.67;;
1276;SDS011;631;51.024;13.826;2022-07-24T07:36:41;7.33;;;6.83;;
1276;SDS011;631;51.024;13.826;2022-07-24T07:39:07;6.17;;;5.80;;
1276;SDS011;631;51.024;13.826;2022-07-24T07:41:32;7.00;;;6.40;;
1276;SDS011;631;51.024;13.826;2022-07-24T07:43:58;6.40;;;6.00;;
1276;SDS011;631;51.024;13.826;2022-07-24T07:46:24;7.30;;;6.90;;
1276;SDS011;631;51.024;13.826;2022-07-24T07:48:50;6.13;;;5.47;;
1276;SDS011;631;51.024;13.826;2022-07-24T07:51:16;5.83;;;5.43;;
1276;SDS011;631;51.024;13.826;2022-07-24T07:53:42;5.90;;;5.50;;
1276;SDS011;631;51.024;13.826;2022-07-24T07:56:07;5.80;;;5.40;;
1276;SDS011;631;51.024;13.826;2022-07-24T07:58:33;6.23;;;5.73;;
1276;SDS011;631;51.024;13.826;2022-07-24T08:00:59;5.93;;;5.53;;
1276;SDS011;631;51.024;13.826;2022-07-24T08:03:25;5.97;;;5.60;;
1276;SDS011;631;51.024;13.826;2022-07-24T08:05:51;5.60;;;5.30;;
1276;SDS011;631;51.024;13.826;2022-07-24T08:08:16;6.13;;;5.73;;
1276;SDS011;631;51.024;13.826;2022-07-24T08:10:42;6.27;;;5.77;;
1276;SDS011;631;51.024;13.826;2022-07-24T08:13:08;6.43;;;5.93;;
1276;SDS011;631;51.024;13.826;2022-07-24T08:15:33;6.33;;;5.80;;
1276;SDS011;631;51.024;13.826;2022-07-24T08:17:59;6.47;;;6.07;;
1276;SDS011;631;51.024;13.826;2022-07-24T08:20:25;6.30;;;5.90;;
1276;SDS011;631;51.024;13.826;2022-07-24T08:22:51;6.27;;;5.90;;
1276;SDS011;631;51.024;13.826;2022-07-24T08:25:17;7.60;;;7.07;;
1276;SDS011;631;51.024;13.826;2022-07-24T08:27:43;6.60;;;6.20;;
1276;SDS011;631;51.024;13.826;2022-07-24T08:30:09;6.40;;;5.93;;
1276;SDS011;631;51.024;13.826;2022-07-24T08:32:35;6.63;;;6.23;;
1276;SDS011;631;51.024;13.826;2022-07-24T08:35:01;6.03;;;5.73;;
1276;SDS011;631;51.024;13.826;2022-07-24T08:37:27;6.77;;;6.17;;
1276;SDS011;631;51.024;13.826;2022-07-24T08:39:53;6.10;;;5.80;;
1276;SDS011;631;51.024;13.826;2022-07-24T08:42:19;5.87;;;5.57;;
1276;SDS011;631;51.024;13.826;2022-07-24T08:44:46;6.10;;;5.80;;
1276;SDS011;631;51.024;13.826;2022-07-24T08:47:12;6.47;;;6.10;;
1276;SDS011;631;51.024;13.826;2022-07-24T08:49:40;6.47;;;6.07;;
1276;SDS011;631;51.024;13.826;2022-07-24T08:52:06;6.80;;;6.30;;
1276;SDS011;631;51.024;13.826;2022-07-24T08:54:33;6.90;;;6.50;;
1276;SDS011;631;51.024;13.826;2022-07-24T08:57:00;6.40;;;6.00;;
1276;SDS011;631;51.024;13.826;2022-07-24T08:59:25;6.33;;;5.93;;
1276;SDS011;631;51.024;13.826;2022-07-24T09:01:51;7.00;;;6.60;;
1276;SDS011;631;51.024;13.826;2022-07-24T09:07:05;6.63;;;6.23;;
1276;SDS011;631;51.024;13.826;2022-07-24T09:09:32;6.10;;;5.60;;
1276;SDS011;631;51.024;13.826;2022-07-24T09:14:44;6.37;;;5.97;;
1276;SDS011;631;51.024;13.826;2022-07-24T09:17:12;6.57;;;6.17;;
1276;SDS011;631;51.024;13.826;2022-07-24T09:19:53;6.17;;;5.87;;
1276;SDS011;631;51.024;13.826;2022-07-24T09:22:31;6.20;;;5.80;;
1276;SDS011;631;51.024;13.826;2022-07-24T09:27:36;6.60;;;6.20;;
1276;SDS011;631;51.024;13.826;2022-07-24T09:30:05;6.73;;;6.33;;
1276;SDS011;631;51.024;13.826;2022-07-24T09:32:31;6.60;;;6.20;;
1276;SDS011;631;51.024;13.826;2022-07-24T09:34:57;6.70;;;6.30;;
1276;SDS011;631;51.024;13.826;2022-07-24T09:37:26;6.83;;;6.27;;
1276;SDS011;631;51.024;13.826;2022-07-24T09:39:52;6.47;;;5.97;;
1276;SDS011;631;51.024;13.826;2022-07-24T09:42:30;6.17;;;5.87;;
1276;SDS011;631;51.024;13.826;2022-07-24T09:44:59;6.33;;;6.03;;
1276;SDS011;631;51.024;13.826;2022-07-24T09:47:24;6.13;;;5.67;;
1276;SDS011;631;51.024;13.826;2022-07-24T09:49:54;6.30;;;6.00;;
1276;SDS011;631;51.024;13.826;2022-07-24T09:52:35;6.60;;;6.00;;
1276;SDS011;631;51.024;13.826;2022-07-24T09:55:02;6.33;;;6.00;;
1276;SDS011;631;51.024;13.826;2022-07-24T09:57:28;6.17;;;5.87;;
1276;SDS011;631;51.024;13.826;2022-07-24T09:59:59;6.20;;;5.90;;
1276;SDS011;631;51.024;13.826;2022-07-24T10:02:30;6.60;;;6.10;;
1276;SDS011;631;51.024;13.826;2022-07-24T10:04:58;6.40;;;6.10;;
1276;SDS011;631;51.024;13.826;2022-07-24T10:07:25;6.43;;;6.03;;
1276;SDS011;631;51.024;13.826;2022-07-24T10:09:53;6.80;;;6.30;;
1276;SDS011;631;51.024;13.826;2022-07-24T10:12:24;6.07;;;5.67;;
1276;SDS011;631;51.024;13.826;2022-07-24T10:14:52;6.13;;;5.83;;
1276;SDS011;631;51.024;13.826;2022-07-24T10:17:21;5.87;;;5.57;;
1276;SDS011;631;51.024;13.826;2022-07-24T10:20:03;6.37;;;5.97;;
1276;SDS011;631;51.024;13.826;2022-07-24T10:22:32;6.57;;;5.97;;
1276;SDS011;631;51.024;13.826;2022-07-24T10:25:09;6.07;;;5.67;;
1276;SDS011;631;51.024;13.826;2022-07-24T10:27:40;6.10;;;5.80;;
1276;SDS011;631;51.024;13.826;2022-07-24T10:30:09;6.10;;;5.70;;
1276;SDS011;631;51.024;13.826;2022-07-24T10:32:36;5.47;;;5.17;;
1276;SDS011;631;51.024;13.826;2022-07-24T10:35:13;5.77;;;5.47;;
1276;SDS011;631;51.024;13.826;2022-07-24T10:40:33;5.50;;;5.20;;
1276;SDS011;631;51.024;13.826;2022-07-24T10:43:07;6.03;;;5.73;;
1276;SDS011;631;51.024;13.826;2022-07-24T10:45:36;5.60;;;5.27;;
1276;SDS011;631;51.024;13.826;2022-07-24T11:01:45;6.10;;;5.80;;
1276;SDS011;631;51.024;13.826;2022-07-24T11:06:49;6.40;;;5.90;;
1276;SDS011;631;51.024;13.826;2022-07-24T11:09:32;5.87;;;5.57;;
1276;SDS011;631;51.024;13.826;2022-07-24T11:12:25;6.33;;;6.03;;
1276;SDS011;631;51.024;13.826;2022-07-24T11:15:01;6.33;;;6.03;;
1276;SDS011;631;51.024;13.826;2022-07-24T11:17:47;6.53;;;6.13;;
1276;SDS011;631;51.024;13.826;2022-07-24T11:20:21;6.13;;;5.73;;
1276;SDS011;631;51.024;13.826;2022-07-24T11:22:48;6.50;;;6.00;;
1276;SDS011;631;51.024;13.826;2022-07-24T11:25:23;6.50;;;6.10;;
1276;SDS011;631;51.024;13.826;2022-07-24T11:30:25;6.50;;;6.10;;
1276;SDS011;631;51.024;13.826;2022-07-24T11:32:55;6.20;;;5.90;;
1276;SDS011;631;51.024;13.826;2022-07-24T11:35:35;5.97;;;5.67;;
1276;SDS011;631;51.024;13.826;2022-07-24T11:38:03;5.15;;;4.80;;
1276;SDS011;631;51.024;13.826;2022-07-24T11:40:30;6.00;;;5.70;;
1276;SDS011;631;51.024;13.826;2022-07-24T11:43:00;5.77;;;5.47;;
1276;SDS011;631;51.024;13.826;2022-07-24T11:45:28;6.50;;;6.10;;
1276;SDS011;631;51.024;13.826;2022-07-24T11:47:53;5.70;;;5.30;;
1276;SDS011;631;51.024;13.826;2022-07-24T11:50:24;6.10;;;5.80;;
1276;SDS011;631;51.024;13.826;2022-07-24T11:52:50;6.00;;;5.70;;
1276;SDS011;631;51.024;13.826;2022-07-24T11:55:17;6.83;;;6.43;;
1276;SDS011;631;51.024;13.826;2022-07-24T11:57:50;6.83;;;6.43;;
1276;SDS011;631;51.024;13.826;2022-07-24T12:00:19;6.10;;;5.80;;
1276;SDS011;631;51.024;13.826;2022-07-24T12:02:51;6.30;;;6.00;;
1276;SDS011;631;51.024;13.826;2022-07-24T12:05:25;5.90;;;5.60;;
1276;SDS011;631;51.024;13.826;2022-07-24T12:07:53;6.53;;;6.23;;
1276;SDS011;631;51.024;13.826;2022-07-24T12:10:21;6.77;;;6.47;;
1276;SDS011;631;51.024;13.826;2022-07-24T12:12:48;6.13;;;5.83;;
1276;SDS011;631;51.024;13.826;2022-07-24T12:15:15;5.90;;;5.60;;
1276;SDS011;631;51.024;13.826;2022-07-24T12:20:30;6.90;;;6.50;;
1276;SDS011;631;51.024;13.826;2022-07-24T12:23:13;6.10;;;5.80;;
1276;SDS011;631;51.024;13.826;2022-07-24T12:25:41;5.63;;;5.33;;
1276;SDS011;631;51.024;13.826;2022-07-24T12:28:09;6.80;;;6.40;;
1276;SDS011;631;51.024;13.826;2022-07-24T12:30:39;5.87;;;5.57;;
1276;SDS011;631;51.024;13.826;2022-07-24T12:38:37;6.57;;;6.20;;
1276;SDS011;631;51.024;13.826;2022-07-24T12:41:16;6.03;;;5.73;;
1276;SDS011;631;51.024;13.826;2022-07-24T12:49:04;6.20;;;5.80;;
1276;SDS011;631;51.024;13.826;2022-07-24T12:54:20;6.30;;;6.00;;
1276;SDS011;631;51.024;13.826;2022-07-24T12:56:47;6.20;;;5.80;;
1276;SDS011;631;51.024;13.826;2022-07-24T13:01:58;6.60;;;6.20;;
1276;SDS011;631;51.024;13.826;2022-07-24T13:04:31;6.57;;;6.27;;
1276;SDS011;631;51.024;13.826;2022-07-24T13:06:59;6.30;;;6.00;;
1276;SDS011;631;51.024;13.826;2022-07-24T13:09:26;6.33;;;5.93;;
1276;SDS011;631;51.024;13.826;2022-07-24T13:11:53;6.37;;;6.07;;
1276;SDS011;631;51.024;13.826;2022-07-24T13:14:21;6.10;;;5.80;;
1276;SDS011;631;51.024;13.826;2022-07-24T13:16:49;6.30;;;6.00;;
1276;SDS011;631;51.024;13.826;2022-07-24T13:19:15;6.37;;;6.07;;
1276;SDS011;631;51.024;13.826;2022-07-24T13:21:42;6.57;;;6.17;;
1276;SDS011;631;51.024;13.826;2022-07-24T13:24:09;6.77;;;6.40;;
1276;SDS011;631;51.024;13.826;2022-07-24T13:26:35;6.67;;;6.27;;
1276;SDS011;631;51.024;13.826;2022-07-24T13:29:02;6.70;;;6.30;;
1276;SDS011;631;51.024;13.826;2022-07-24T13:31:29;6.40;;;6.10;;
1276;SDS011;631;51.024;13.826;2022-07-24T13:33:54;6.80;;;6.40;;
1276;SDS011;631;51.024;13.826;2022-07-24T13:36:20;6.33;;;6.03;;
1276;SDS011;631;51.024;13.826;2022-07-24T13:38:46;7.17;;;6.60;;
1276;SDS011;631;51.024;13.826;2022-07-24T13:41:11;6.87;;;6.50;;
1276;SDS011;631;51.024;13.826;2022-07-24T13:43:37;6.60;;;6.30;;
1276;SDS011;631;51.024;13.826;2022-07-24T13:46:03;6.90;;;6.53;;
1276;SDS011;631;51.024;13.826;2022-07-24T13:48:29;7.03;;;6.73;;
1276;SDS011;631;51.024;13.826;2022-07-24T13:50:55;6.90;;;6.60;;
1276;SDS011;631;51.024;13.826;2022-07-24T13:53:21;6.20;;;5.87;;
1276;SDS011;631;51.024;13.826;2022-07-24T13:55:47;7.27;;;6.87;;
1276;SDS011;631;51.024;13.826;2022-07-24T13:58:12;6.57;;;6.27;;
1276;SDS011;631;51.024;13.826;2022-07-24T14:00:38;6.67;;;6.40;;
1276;SDS011;631;51.024;13.826;2022-07-24T14:03:04;6.90;;;6.60;;
1276;SDS011;631;51.024;13.826;2022-07-24T14:05:31;6.53;;;6.20;;
1276;SDS011;631;51.024;13.826;2022-07-24T14:07:56;6.00;;;5.80;;
1276;SDS011;631;51.024;13.826;2022-07-24T14:10:22;7.03;;;6.73;;
1276;SDS011;631;51.024;13.826;2022-07-24T14:12:48;6.93;;;6.63;;
1276;SDS011;631;51.024;13.826;2022-07-24T14:15:14;7.10;;;6.80;;
1276;SDS011;631;51.024;13.826;2022-07-24T14:17:41;6.43;;;6.13;;
1276;SDS011;631;51.024;13.826;2022-07-24T14:20:09;7.17;;;6.77;;
1276;SDS011;631;51.024;13.826;2022-07-24T14:22:36;5.90;;;5.70;;
1276;SDS011;631;51.024;13.826;2022-07-24T14:25:03;7.17;;;6.60;;
1276;SDS011;631;51.024;13.826;2022-07-24T14:27:30;7.37;;;7.07;;
1276;SDS011;631;51.024;13.826;2022-07-24T14:29:56;7.00;;;6.70;;
1276;SDS011;631;51.024;13.826;2022-07-24T14:32:21;6.00;;;5.70;;
1276;SDS011;631;51.024;13.826;2022-07-24T14:34:47;6.50;;;6.17;;
1276;SDS011;631;51.024;13.826;2022-07-24T14:37:12;5.70;;;5.50;;
1276;SDS011;631;51.024;13.826;2022-07-24T14:39:38;6.90;;;6.50;;
1276;SDS011;631;51.024;13.826;2022-07-24T14:42:04;6.40;;;6.10;;
1276;SDS011;631;51.024;13.826;2022-07-24T14:44:30;6.60;;;6.30;;
1276;SDS011;631;51.024;13.826;2022-07-24T14:46:56;6.43;;;6.13;;
1276;SDS011;631;51.024;13.826;2022-07-24T14:49:21;6.03;;;5.83;;
1276;SDS011;631;51.024;13.826;2022-07-24T14:51:47;6.60;;;6.30;;
1276;SDS011;631;51.024;13.826;2022-07-24T14:54:12;6.20;;;5.90;;
1276;SDS011;631;51.024;13.826;2022-07-24T14:56:39;6.10;;;5.80;;
1276;SDS011;631;51.024;13.826;2022-07-24T14:59:05;6.93;;;6.57;;
1276;SDS011;631;51.024;13.826;2022-07-24T15:01:31;6.60;;;6.30;;
1276;SDS011;631;51.024;13.826;2022-07-24T15:03:57;6.80;;;6.50;;
1276;SDS011;631;51.024;13.826;2022-07-24T15:06:23;5.70;;;5.50;;
1276;SDS011;631;51.024;13.826;2022-07-24T15:08:48;6.40;;;6.13;;
1276;SDS011;631;51.024;13.826;2022-07-24T15:11:14;6.47;;;6.23;;
1276;SDS011;631;51.024;13.826;2022-07-24T15:13:39;6.60;;;6.30;;
1276;SDS011;631;51.024;13.826;2022-07-24T15:16:05;7.30;;;6.90;;
1276;SDS011;631;51.024;13.826;2022-07-24T15:18:32;6.70;;;6.40;;
1276;SDS011;631;51.024;13.826;2022-07-24T15:20:58;6.80;;;6.50;;
1276;SDS011;631;51.024;13.826;2022-07-24T15:23:24;7.20;;;6.90;;
1276;SDS011;631;51.024;13.826;2022-07-24T15:25:50;6.50;;;6.20;;
1276;SDS011;631;51.024;13.826;2022-07-24T15:28:17;6.33;;;6.03;;
1276;SDS011;631;51.024;13.826;2022-07-24T15:30:42;6.83;;;6.53;;
1276;SDS011;631;51.024;13.826;2022-07-24T15:33:08;7.17;;;6.87;;
1276;SDS011;631;51.024;13.826;2022-07-24T15:35:33;7.20;;;6.90;;
1276;SDS011;631;51.024;13.826;2022-07-24T15:37:59;7.17;;;6.77;;
1276;SDS011;631;51.024;13.826;2022-07-24T15:40:25;6.90;;;6.60;;
1276;SDS011;631;51.024;13.826;2022-07-24T15:42:52;7.37;;;6.97;;
1276;SDS011;631;51.024;13.826;2022-07-24T15:45:19;7.23;;;6.93;;
1276;SDS011;631;51.024;13.826;2022-07-24T15:47:45;7.50;;;7.10;;
1276;SDS011;631;51.024;13.826;2022-07-24T15:50:10;7.60;;;7.20;;
1276;SDS011;631;51.024;13.826;2022-07-24T15:52:36;6.93;;;6.63;;